MDPP Airport Information

Runway Information
Runway 08 Length 10108 ft width 151 ft
Elevation 17 ft Threshold 0 ft Heading 73
Runway 26 Length 10108 ft Width 151 ft
Elevation 15 ft Threshold 0 ft Heading 253
Airport Frequencies
Type APP Name PUERTO PLA Frequency 119 MHZ
Type GND Name GND Frequency 121.9 MHZ
Type TWR Name PUERTO PLA Frequency 118 MHZ
Airport Navaids
Type NDB Name Puerto Plata Frequency 450 KHZ
Type VOR-DME Name Puerto Plata Frequency 115100 KHZ
Airport Weather Information & NOTAM
ADDS - METARS form results

(2048 UTC 21 April 2018)
 
METAR text: MDPP 212000Z 09010KT 9999 FEW018CB SCT020 28/24 Q1014 CB/SE/S
Conditions at: MDPP (PUERTO PLATA IN , DO) observed 2000 UTC 21 April 2018
Temperature: 28.0°C (82°F)
Dewpoint: 24.0°C (75°F) [RH = 79%]
Pressure (altimeter): 29.94 inches Hg (1014.0 mb)
Winds: from the E (90 degrees) at 12 MPH (10 knots; 5.2 m/s)
Visibility: 6 or more miles (10+ km)
Ceiling: at least 12,000 feet AGL
Clouds: few clouds at 1800 feet AGL
scattered clouds at 2000 feet AGL
Weather: no significant weather observed at this time